Time;durP1;ratioP1;P1;durP2;ratioP2;P2;SDS_P1;SDS_P2;PMS_P1;PMS_P2;Temp;Humidity;BMP_temperature;BMP_pressure;BME280_temperature;BME280_humidity;BME280_pressure;Samples;Min_cycle;Max_cycle;Signal;HPM_P1;HPM_P2
2022/10/19 00:01:22;;;;;;;3.00;2.45;;;;;15.40;102756.00;;;;5078407;28;20206;-77
2022/10/19 00:03:51;;;;;;;4.88;2.65;;;;;15.40;102761.00;;;;5073191;28;20191;-77
2022/10/19 00:06:24;;;;;;;3.33;2.10;;;;;15.30;102763.00;;;;5073211;28;20199;-77
2022/10/19 00:08:53;;;;;;;3.08;2.55;;;;;15.30;102764.00;;;;5076728;28;20635;-77
2022/10/19 00:11:22;;;;;;;3.17;2.70;;;;;15.30;102760.00;;;;5075307;28;20202;-77
2022/10/19 00:13:49;;;;;;;3.75;1.90;;;;;15.30;102757.00;;;;5079014;28;20725;-77
2022/10/19 00:16:18;;;;;;;4.75;2.47;;;;;15.20;102761.00;;;;5075830;28;20604;-77
2022/10/19 00:18:46;;;;;;;3.10;2.03;;;;;15.20;102754.00;;;;5077692;28;20202;-77
2022/10/19 00:21:15;;;;;;;3.58;2.17;;;;;15.20;102760.00;;;;5078467;28;20209;-77
2022/10/19 00:23:42;;;;;;;4.05;2.47;;;;;15.20;102751.00;;;;5077394;28;20199;-77
2022/10/19 00:26:12;;;;;;;5.88;2.67;;;;;15.10;102750.00;;;;5079436;28;20194;-77
2022/10/19 00:28:39;;;;;;;5.43;2.45;;;;;15.10;102748.00;;;;5077357;28;20198;-77
2022/10/19 00:31:09;;;;;;;3.13;2.58;;;;;15.10;102754.00;;;;5077995;28;20190;-77
2022/10/19 00:33:37;;;;;;;5.60;2.20;;;;;15.10;102751.00;;;;5074879;28;20211;-77
2022/10/19 00:36:05;;;;;;;4.40;2.50;;;;;15.10;102753.00;;;;5080740;28;20221;-77
2022/10/19 00:38:32;;;;;;;3.75;2.50;;;;;15.00;102751.00;;;;5077332;28;20198;-77
2022/10/19 00:40:59;;;;;;;2.38;2.10;;;;;15.00;102749.00;;;;5077917;28;20201;-77
2022/10/19 00:43:31;;;;;;;4.03;1.85;;;;;15.00;102757.00;;;;5077262;28;20537;-77
2022/10/19 00:45:58;;;;;;;8.07;2.17;;;;;15.00;102751.00;;;;5076732;28;20193;-77
2022/10/19 00:48:31;;;;;;;3.28;2.22;;;;;14.90;102753.00;;;;5075314;28;20198;-77
2022/10/19 00:51:00;;;;;;;7.25;2.80;;;;;14.90;102757.00;;;;5076092;28;20198;-77
2022/10/19 00:53:30;;;;;;;4.55;2.35;;;;;14.90;102758.00;;;;5077924;28;20202;-77
2022/10/19 00:55:59;;;;;;;2.85;1.83;;;;;14.90;102753.00;;;;5075529;28;20206;-77
2022/10/19 00:58:28;;;;;;;2.53;1.63;;;;;14.90;102751.00;;;;5073851;28;20233;-77
2022/10/19 01:00:55;;;;;;;3.83;1.80;;;;;14.90;102750.00;;;;5076118;28;20190;-77
2022/10/19 01:03:23;;;;;;;2.88;1.95;;;;;14.90;102750.00;;;;5073762;28;20210;-77
2022/10/19 01:05:51;;;;;;;3.15;2.03;;;;;14.90;102742.00;;;;5073446;28;20206;-77
2022/10/19 01:08:18;;;;;;;4.30;2.17;;;;;14.80;102740.00;;;;5073936;28;20201;-77
2022/10/19 01:10:52;;;;;;;3.58;1.88;;;;;14.80;102728.00;;;;5078045;28;20201;-77
2022/10/19 01:13:32;;;;;;;3.50;1.90;;;;;14.80;102735.00;;;;5080086;28;20194;-77
2022/10/19 01:16:07;;;;;;;3.50;1.80;;;;;14.80;102733.00;;;;5077410;28;20645;-77
2022/10/19 01:18:44;;;;;;;3.90;1.77;;;;;14.70;102727.00;;;;5077524;28;20221;-77
2022/10/19 01:21:23;;;;;;;4.50;2.08;;;;;14.70;102728.00;;;;5077025;28;20198;-77
2022/10/19 01:24:28;;;;;;;2.40;1.63;;;;;14.60;102720.00;;;;5075157;28;20198;-77
2022/10/19 01:27:29;;;;;;;3.35;1.83;;;;;14.60;102716.00;;;;5073234;28;20209;-78
2022/10/19 01:30:09;;;;;;;2.95;1.58;;;;;14.60;102709.00;;;;5076921;28;20229;-75
2022/10/19 01:32:46;;;;;;;4.45;1.90;;;;;14.60;102715.00;;;;5074960;28;20641;-75
2022/10/19 01:35:24;;;;;;;20.10;1.48;;;;;14.60;102717.00;;;;5076025;28;20206;-75
2022/10/19 01:38:01;;;;;;;3.95;1.65;;;;;14.60;102714.00;;;;5075700;28;20271;-75
2022/10/19 01:40:37;;;;;;;2.17;1.60;;;;;14.60;102710.00;;;;5077987;28;20206;-75
2022/10/19 01:43:11;;;;;;;3.30;1.25;;;;;14.60;102712.00;;;;5079806;28;20195;-75
2022/10/19 01:45:47;;;;;;;4.70;1.45;;;;;14.50;102718.00;;;;5077765;28;20686;-75
2022/10/19 01:48:17;;;;;;;2.22;1.50;;;;;14.60;102714.00;;;;5081771;28;20190;-76
2022/10/19 01:50:50;;;;;;;3.25;1.60;;;;;14.50;102714.00;;;;5081643;28;20199;-75
2022/10/19 01:53:19;;;;;;;3.20;1.70;;;;;14.50;102710.00;;;;5078122;28;20213;-76
2022/10/19 01:55:50;;;;;;;3.15;1.70;;;;;14.50;102711.00;;;;5079412;28;20195;-76
2022/10/19 01:58:21;;;;;;;2.03;1.40;;;;;14.50;102712.00;;;;5079502;28;20238;-76
2022/10/19 02:00:53;;;;;;;2.88;1.48;;;;;14.40;102707.00;;;;5077891;28;20553;-76
2022/10/19 02:03:20;;;;;;;2.60;1.20;;;;;14.50;102708.00;;;;5079884;28;20656;-76
2022/10/19 02:05:49;;;;;;;3.10;1.23;;;;;14.40;102707.00;;;;5082941;28;20202;-76
2022/10/19 02:08:22;;;;;;;1.92;1.17;;;;;14.40;102709.00;;;;5076672;28;20657;-76
2022/10/19 02:10:51;;;;;;;3.17;1.17;;;;;14.40;102710.00;;;;5078764;28;20194;-76
2022/10/19 02:13:20;;;;;;;2.65;1.33;;;;;14.40;102708.00;;;;5078074;28;20198;-76
2022/10/19 02:15:52;;;;;;;2.95;1.60;;;;;14.30;102712.00;;;;5076015;28;20202;-78
2022/10/19 02:18:25;;;;;;;3.50;1.20;;;;;14.30;102714.00;;;;5074624;28;20720;-76
2022/10/19 02:20:52;;;;;;;3.35;1.50;;;;;14.30;102713.00;;;;5076111;28;20199;-76
2022/10/19 02:23:23;;;;;;;2.47;0.90;;;;;14.30;102707.00;;;;5077949;28;20198;-76
2022/10/19 02:25:51;;;;;;;2.92;1.05;;;;;14.30;102711.00;;;;5079943;28;20222;-76
2022/10/19 02:28:18;;;;;;;2.95;1.60;;;;;14.30;102707.00;;;;5076727;28;20194;-76
2022/10/19 02:30:46;;;;;;;1.63;1.25;;;;;14.30;102696.00;;;;5080876;28;20230;-76
2022/10/19 02:33:29;;;;;;;2.05;1.30;;;;;14.20;102697.00;;;;5131394;27;97883;-76
2022/10/19 02:35:57;;;;;;;1.73;1.02;;;;;14.20;102692.00;;;;5131523;27;20189;-76
2022/10/19 02:38:25;;;;;;;3.20;1.40;;;;;14.20;102694.00;;;;5134380;27;20204;-76
2022/10/19 02:41:00;;;;;;;1.98;1.25;;;;;14.10;102696.00;;;;5134527;27;20207;-76
2022/10/19 02:43:31;;;;;;;1.58;1.10;;;;;14.10;102686.00;;;;5137189;27;20196;-76
2022/10/19 02:46:03;;;;;;;4.43;1.20;;;;;14.10;102684.00;;;;5137032;27;20200;-76
2022/10/19 02:48:35;;;;;;;2.90;1.05;;;;;14.10;102685.00;;;;5135603;27;20207;-76
2022/10/19 02:51:02;;;;;;;2.13;1.38;;;;;14.10;102679.00;;;;5133939;27;20282;-76
2022/10/19 02:53:29;;;;;;;1.13;1.02;;;;;14.10;102682.00;;;;5131615;27;20197;-76
2022/10/19 02:55:57;;;;;;;1.50;1.30;;;;;14.10;102679.00;;;;5131340;27;20207;-76
2022/10/19 02:58:24;;;;;;;4.22;1.20;;;;;14.10;102676.00;;;;5130917;27;20203;-76
2022/10/19 03:00:51;;;;;;;4.93;1.25;;;;;14.10;102681.00;;;;5130499;27;20200;-76
2022/10/19 03:03:18;;;;;;;2.72;1.08;;;;;14.00;102683.00;;;;5132231;27;20196;-76
2022/10/19 03:05:47;;;;;;;7.55;1.02;;;;;14.00;102687.00;;;;5134795;27;20196;-76
2022/10/19 03:08:14;;;;;;;1.75;1.02;;;;;14.00;102678.00;;;;5131841;27;20200;-76
2022/10/19 03:10:41;;;;;;;1.80;0.90;;;;;14.00;102678.00;;;;5130883;27;20193;-76
2022/10/19 03:13:09;;;;;;;1.08;0.68;;;;;14.00;102678.00;;;;5125778;27;20717;-77
2022/10/19 03:15:36;;;;;;;2.60;1.05;;;;;14.00;102679.00;;;;5131484;27;20197;-76
2022/10/19 03:18:03;;;;;;;2.20;0.75;;;;;14.00;102675.00;;;;5138243;27;20693;-76
2022/10/19 03:20:30;;;;;;;3.78;1.02;;;;;14.00;102674.00;;;;5138418;27;20211;-76
2022/10/19 03:22:59;;;;;;;2.60;0.80;;;;;14.00;102679.00;;;;5131827;27;20197;-77
2022/10/19 03:25:26;;;;;;;2.92;1.15;;;;;14.10;102664.00;;;;5131750;27;20224;-76
2022/10/19 03:27:54;;;;;;;1.55;0.93;;;;;14.10;102674.00;;;;5131622;27;20201;-77
2022/10/19 03:30:21;;;;;;;2.30;0.80;;;;;14.10;102673.00;;;;5131532;27;20201;-77
2022/10/19 03:32:48;;;;;;;2.30;1.20;;;;;14.10;102673.00;;;;5129322;27;20601;-77
2022/10/19 03:35:15;;;;;;;1.60;1.00;;;;;14.10;102674.00;;;;5127675;27;20650;-77
2022/10/19 03:37:43;;;;;;;1.15;1.00;;;;;14.10;102671.00;;;;5131907;27;20204;-77
2022/10/19 03:40:11;;;;;;;3.20;1.75;;;;;14.10;102675.00;;;;5133330;27;20429;-76
2022/10/19 03:42:39;;;;;;;1.55;1.30;;;;;14.20;102672.00;;;;5124244;27;20201;-77
2022/10/19 03:45:07;;;;;;;1.58;1.20;;;;;14.20;102662.00;;;;5114700;27;20202;-76
2022/10/19 03:47:34;;;;;;;1.13;0.95;;;;;14.20;102663.00;;;;5114426;27;20186;-77
2022/10/19 03:50:01;;;;;;;1.75;1.15;;;;;14.20;102660.00;;;;5116365;27;20193;-77
2022/10/19 03:52:29;;;;;;;2.20;0.93;;;;;14.20;102662.00;;;;5106598;27;20224;-77
2022/10/19 03:54:56;;;;;;;1.23;0.70;;;;;14.20;102661.00;;;;5114608;27;20598;-77
2022/10/19 03:57:24;;;;;;;5.38;1.30;;;;;14.20;102663.00;;;;5113466;27;20198;-77
2022/10/19 03:59:52;;;;;;;2.45;0.80;;;;;14.20;102659.00;;;;5116658;27;20200;-77
2022/10/19 04:02:19;;;;;;;2.10;0.90;;;;;14.20;102657.00;;;;5113340;27;20194;-77
2022/10/19 04:04:46;;;;;;;4.60;1.60;;;;;14.20;102649.00;;;;5113842;27;20194;-77
2022/10/19 04:07:13;;;;;;;1.98;1.10;;;;;14.20;102657.00;;;;5114684;27;20548;-77
2022/10/19 04:09:41;;;;;;;4.43;1.10;;;;;14.30;102649.00;;;;5121083;27;20193;-77
2022/10/19 04:12:08;;;;;;;1.48;1.00;;;;;14.30;102657.00;;;;5113511;27;20228;-77
2022/10/19 04:14:37;;;;;;;3.75;1.40;;;;;14.20;102660.00;;;;5110679;27;20204;-77
2022/10/19 04:17:04;;;;;;;4.00;1.13;;;;;14.30;102660.00;;;;5118244;27;20204;-77
2022/10/19 04:19:32;;;;;;;2.35;0.80;;;;;14.30;102661.00;;;;5117829;27;20202;-77
2022/10/19 04:22:00;;;;;;;1.52;0.90;;;;;14.30;102664.00;;;;5113451;27;20205;-77
2022/10/19 04:24:27;;;;;;;4.03;0.80;;;;;14.30;102665.00;;;;5114022;27;20213;-77
2022/10/19 04:26:56;;;;;;;1.60;0.85;;;;;14.30;102677.00;;;;5115138;27;20201;-77
2022/10/19 04:29:24;;;;;;;3.47;0.90;;;;;14.30;102666.00;;;;5109132;27;20205;-77
2022/10/19 04:31:53;;;;;;;1.65;1.00;;;;;14.30;102664.00;;;;5114067;27;20228;-76
2022/10/19 04:34:21;;;;;;;2.45;0.60;;;;;14.30;102658.00;;;;5108570;27;20196;-76
2022/10/19 04:36:48;;;;;;;1.00;0.75;;;;;14.30;102663.00;;;;5116738;27;20211;-77
2022/10/19 04:39:15;;;;;;;0.93;0.57;;;;;14.30;102659.00;;;;5116331;27;20197;-77
2022/10/19 04:41:42;;;;;;;1.40;0.88;;;;;14.30;102663.00;;;;5111410;27;20196;-76
2022/10/19 04:44:10;;;;;;;3.00;0.70;;;;;14.30;102667.00;;;;5106745;27;20570;-76
2022/10/19 04:46:37;;;;;;;2.47;1.00;;;;;14.30;102671.00;;;;5114938;27;20202;-76
2022/10/19 04:49:06;;;;;;;1.25;0.77;;;;;14.30;102666.00;;;;5109186;27;20221;-76
2022/10/19 04:51:33;;;;;;;3.45;1.13;;;;;14.30;102666.00;;;;5112863;27;20201;-76
2022/10/19 04:54:01;;;;;;;3.50;0.80;;;;;14.30;102659.00;;;;5111763;27;20225;-76
2022/10/19 04:56:31;;;;;;;1.55;1.10;;;;;14.30;102664.00;;;;5116568;27;21814;-76
2022/10/19 04:58:59;;;;;;;3.33;1.45;;;;;14.30;102656.00;;;;5112855;27;20648;-77
2022/10/19 05:01:30;;;;;;;4.32;0.80;;;;;14.30;102658.00;;;;5114254;27;20195;-76
2022/10/19 05:03:59;;;;;;;2.40;1.40;;;;;14.30;102654.00;;;;5115701;27;20208;-76
2022/10/19 05:06:28;;;;;;;2.20;1.23;;;;;14.30;102651.00;;;;5114325;27;20202;-77
2022/10/19 05:08:56;;;;;;;2.70;1.27;;;;;14.30;102657.00;;;;5118467;27;20576;-77
2022/10/19 05:11:24;;;;;;;1.65;1.10;;;;;14.30;102654.00;;;;5111470;27;21525;-76
2022/10/19 05:13:51;;;;;;;2.25;1.00;;;;;14.30;102656.00;;;;5112645;27;20677;-77
2022/10/19 05:16:21;;;;;;;4.05;0.75;;;;;14.30;102651.00;;;;5106448;27;20206;-77
2022/10/19 05:18:49;;;;;;;3.35;0.63;;;;;14.30;102653.00;;;;5085921;28;20205;-77
2022/10/19 05:21:17;;;;;;;0.88;0.63;;;;;14.30;102655.00;;;;5086284;28;20208;-77
2022/10/19 05:23:46;;;;;;;5.75;0.77;;;;;14.30;102652.00;;;;5091122;28;20201;-78
2022/10/19 05:26:16;;;;;;;1.35;0.80;;;;;14.30;102646.00;;;;5093529;28;20656;-78
2022/10/19 05:28:43;;;;;;;1.45;0.57;;;;;14.40;102645.00;;;;5097907;28;20668;-77
2022/10/19 05:31:13;;;;;;;4.82;1.10;;;;;14.30;102645.00;;;;5101545;28;20201;-78
2022/10/19 05:33:41;;;;;;;0.93;0.65;;;;;14.40;102651.00;;;;5095551;28;20237;-77
2022/10/19 05:36:16;;;;;;;1.55;0.68;;;;;14.30;102646.00;;;;5093217;28;20292;-77
2022/10/19 05:38:44;;;;;;;2.58;0.68;;;;;14.40;102643.00;;;;5102010;28;20190;-78
2022/10/19 05:41:14;;;;;;;3.05;1.00;;;;;14.40;102644.00;;;;5089794;28;20210;-77
2022/10/19 05:43:42;;;;;;;2.25;1.30;;;;;14.40;102643.00;;;;5092199;28;20205;-77
2022/10/19 05:46:11;;;;;;;3.05;0.82;;;;;14.40;102640.00;;;;5094755;28;20209;-76
2022/10/19 05:48:40;;;;;;;2.13;0.90;;;;;14.40;102635.00;;;;5109752;28;20206;-76
2022/10/19 05:51:10;;;;;;;1.30;0.70;;;;;14.40;102638.00;;;;5093980;28;20209;-77
2022/10/19 05:53:37;;;;;;;3.65;0.70;;;;;14.40;102628.00;;;;5095609;28;20236;-77
2022/10/19 05:56:06;;;;;;;3.05;0.70;;;;;14.40;102631.00;;;;5099369;28;20577;-76
2022/10/19 05:58:35;;;;;;;1.42;1.00;;;;;14.40;102635.00;;;;5094154;28;20193;-76
2022/10/19 06:01:03;;;;;;;1.95;0.95;;;;;14.40;102643.00;;;;5095500;28;20198;-76
2022/10/19 06:03:31;;;;;;;2.30;1.02;;;;;14.40;102625.00;;;;5105117;28;20617;-76
2022/10/19 06:06:04;;;;;;;1.73;0.60;;;;;14.40;102627.00;;;;5107897;28;20399;-76
2022/10/19 06:08:31;;;;;;;2.35;0.77;;;;;14.40;102623.00;;;;5099177;28;20201;-76
2022/10/19 06:11:06;;;;;;;1.38;0.73;;;;;14.30;102625.00;;;;5095964;28;20202;-76
2022/10/19 06:13:35;;;;;;;1.48;0.68;;;;;14.40;102630.00;;;;5094726;28;20228;-75
2022/10/19 06:16:02;;;;;;;2.88;0.85;;;;;14.40;102621.00;;;;5108080;28;20203;-76
2022/10/19 06:18:29;;;;;;;0.88;0.60;;;;;14.50;102625.00;;;;5099160;28;20663;-76
2022/10/19 06:21:00;;;;;;;2.17;1.08;;;;;14.50;102629.00;;;;5088622;28;20874;-76
2022/10/19 06:23:28;;;;;;;1.35;0.55;;;;;14.50;102624.00;;;;5099289;28;20217;-75
2022/10/19 06:25:55;;;;;;;3.90;0.77;;;;;14.50;102641.00;;;;5091868;28;20209;-75
2022/10/19 06:28:22;;;;;;;1.27;0.80;;;;;14.50;102639.00;;;;5107567;28;20212;-75
2022/10/19 06:30:51;;;;;;;1.20;0.60;;;;;14.50;102652.00;;;;5098058;28;20202;-75
2022/10/19 06:33:18;;;;;;;3.28;0.85;;;;;14.60;102645.00;;;;5104145;28;20244;-75
2022/10/19 06:35:45;;;;;;;2.35;0.75;;;;;14.60;102642.00;;;;5091838;28;20212;-76
2022/10/19 06:38:12;;;;;;;1.00;0.60;;;;;14.60;102642.00;;;;5107311;28;20205;-75
2022/10/19 06:40:40;;;;;;;1.63;0.60;;;;;14.60;102635.00;;;;5100966;28;20840;-75
2022/10/19 06:43:07;;;;;;;1.83;0.80;;;;;14.60;102634.00;;;;5108108;28;20697;-76
2022/10/19 06:45:36;;;;;;;1.88;0.88;;;;;14.70;102627.00;;;;5090491;28;20209;-75
2022/10/19 06:48:06;;;;;;;2.55;0.80;;;;;14.70;102631.00;;;;5089460;28;20195;-75
2022/10/19 06:50:34;;;;;;;2.00;0.82;;;;;14.70;102635.00;;;;5088219;28;20209;-76
2022/10/19 06:53:01;;;;;;;1.63;1.05;;;;;14.70;102627.00;;;;5098827;28;20227;-76
2022/10/19 06:55:28;;;;;;;3.30;1.30;;;;;14.80;102623.00;;;;5091019;28;20204;-76
2022/10/19 06:57:57;;;;;;;3.50;1.30;;;;;14.80;102631.00;;;;5096992;28;20196;-77
2022/10/19 07:00:24;;;;;;;3.85;1.08;;;;;14.90;102635.00;;;;5098362;28;20209;-76
2022/10/19 07:02:52;;;;;;;2.13;1.15;;;;;14.90;102640.00;;;;5102231;28;20196;-77
2022/10/19 07:05:21;;;;;;;2.63;1.30;;;;;14.90;102645.00;;;;5101712;28;20202;-77
2022/10/19 07:07:48;;;;;;;4.60;1.27;;;;;15.00;102645.00;;;;5094362;28;20201;-77
2022/10/19 07:10:15;;;;;;;3.42;1.40;;;;;15.00;102639.00;;;;5107787;28;20201;-77
2022/10/19 07:12:42;;;;;;;1.70;0.90;;;;;15.00;102640.00;;;;5106117;28;20830;-76
2022/10/19 07:15:10;;;;;;;10.35;1.02;;;;;15.10;102629.00;;;;5098168;28;20202;-76
2022/10/19 07:17:37;;;;;;;2.17;1.10;;;;;15.20;102628.00;;;;5093387;28;20190;-77
2022/10/19 07:20:06;;;;;;;3.20;1.00;;;;;15.20;102629.00;;;;5108013;28;20451;-77
2022/10/19 07:22:34;;;;;;;1.27;0.82;;;;;15.30;102625.00;;;;5092618;28;20194;-76
2022/10/19 07:25:02;;;;;;;5.25;1.08;;;;;15.30;102623.00;;;;5100009;28;20217;-76
2022/10/19 07:27:29;;;;;;;2.25;0.90;;;;;15.40;102631.00;;;;5099040;28;20213;-76
2022/10/19 07:29:56;;;;;;;3.72;0.85;;;;;15.40;102629.00;;;;5095594;28;20201;-76
2022/10/19 07:32:24;;;;;;;1.88;0.85;;;;;15.50;102634.00;;;;5074778;28;20246;-77
2022/10/19 07:34:51;;;;;;;1.70;0.80;;;;;15.60;102650.00;;;;5081077;28;20219;-77
2022/10/19 07:37:18;;;;;;;1.60;0.82;;;;;15.60;102652.00;;;;5081955;28;20195;-78
2022/10/19 07:39:47;;;;;;;2.58;0.90;;;;;15.70;102640.00;;;;5084581;28;20209;-77
2022/10/19 07:42:14;;;;;;;1.55;1.00;;;;;15.70;102627.00;;;;5068681;28;20214;-78
2022/10/19 07:44:41;;;;;;;1.40;1.05;;;;;15.80;102641.00;;;;5079016;28;20202;-77
2022/10/19 07:47:11;;;;;;;2.22;1.13;;;;;15.90;102634.00;;;;5073130;28;20199;-78
2022/10/19 07:49:39;;;;;;;5.25;0.90;;;;;15.90;102632.00;;;;5073909;28;20661;-77
2022/10/19 07:52:07;;;;;;;1.67;0.85;;;;;16.00;102638.00;;;;5071331;28;20195;-77
2022/10/19 07:54:34;;;;;;;4.90;1.33;;;;;16.00;102634.00;;;;5082239;28;20218;-77
2022/10/19 07:57:03;;;;;;;2.97;1.05;;;;;16.00;102640.00;;;;5070211;28;20199;-77
2022/10/19 07:59:30;;;;;;;2.03;1.20;;;;;16.00;102641.00;;;;5071560;28;20201;-78
2022/10/19 08:02:01;;;;;;;2.20;1.00;;;;;16.10;102644.00;;;;5070121;28;20220;-77
2022/10/19 08:04:28;;;;;;;1.48;1.10;;;;;16.10;102654.00;;;;5073358;28;20226;-77
2022/10/19 08:06:55;;;;;;;1.85;1.05;;;;;16.10;102644.00;;;;5072818;28;20199;-78
2022/10/19 08:09:23;;;;;;;4.63;1.35;;;;;16.10;102646.00;;;;5078736;28;20203;-77
2022/10/19 08:11:50;;;;;;;5.80;1.38;;;;;16.20;102649.00;;;;5083449;28;20549;-77
2022/10/19 08:14:20;;;;;;;3.40;1.05;;;;;16.20;102641.00;;;;5070858;28;20222;-77
2022/10/19 08:16:47;;;;;;;4.30;1.48;;;;;16.30;102650.00;;;;5070448;28;20205;-75
2022/10/19 08:19:16;;;;;;;1.23;1.02;;;;;16.30;102648.00;;;;5073122;28;20574;-76
2022/10/19 08:21:45;;;;;;;7.38;1.25;;;;;16.30;102650.00;;;;5070049;28;20580;-76
2022/10/19 08:24:14;;;;;;;2.13;1.40;;;;;16.40;102650.00;;;;5071908;28;20226;-76
2022/10/19 08:26:42;;;;;;;2.13;1.42;;;;;16.40;102651.00;;;;5073860;28;20187;-76
2022/10/19 08:29:12;;;;;;;2.90;1.13;;;;;16.50;102648.00;;;;5071738;28;20190;-76
2022/10/19 08:31:41;;;;;;;3.25;1.52;;;;;16.50;102643.00;;;;5085215;28;20250;-75
2022/10/19 08:34:09;;;;;;;1.50;1.20;;;;;16.60;102645.00;;;;5088142;28;20853;-76
2022/10/19 08:36:37;;;;;;;2.85;1.70;;;;;16.60;102635.00;;;;5089949;28;20218;-76
2022/10/19 08:39:06;;;;;;;7.40;1.55;;;;;16.70;102630.00;;;;5101168;28;20212;-75
2022/10/19 08:41:37;;;;;;;2.35;1.42;;;;;16.70;102627.00;;;;5090757;28;20199;-75
2022/10/19 08:44:37;;;;;;;5.60;2.00;;;;;16.70;102631.00;;;;5098621;28;20237;-76
2022/10/19 08:47:18;;;;;;;2.85;1.52;;;;;16.80;102638.00;;;;5097039;28;20691;-75
2022/10/19 08:49:46;;;;;;;3.00;1.45;;;;;16.90;102631.00;;;;5110386;28;20202;-76
2022/10/19 08:52:18;;;;;;;2.05;1.25;;;;;17.00;102626.00;;;;5110584;28;20197;-77
2022/10/19 08:54:51;;;;;;;3.30;1.35;;;;;17.00;102619.00;;;;5105300;28;20528;-77
2022/10/19 08:57:31;;;;;;;3.03;1.73;;;;;17.00;102615.00;;;;5096669;28;20472;-76
2022/10/19 09:00:06;;;;;;;1.40;1.23;;;;;17.20;102610.00;;;;5106348;28;20194;-76
2022/10/19 09:02:45;;;;;;;4.45;1.60;;;;;17.20;102608.00;;;;5106348;28;20190;-76
2022/10/19 09:05:20;;;;;;;2.85;1.33;;;;;17.40;102600.00;;;;5105528;28;20204;-77
2022/10/19 09:07:51;;;;;;;3.53;1.45;;;;;17.50;102591.00;;;;5085183;28;20194;-77
2022/10/19 09:10:23;;;;;;;5.18;1.45;;;;;17.50;102594.00;;;;5084700;28;20198;-76
2022/10/19 09:12:56;;;;;;;5.13;1.67;;;;;17.60;102593.00;;;;5087639;28;20660;-77
2022/10/19 09:15:28;;;;;;;3.33;1.50;;;;;17.70;102603.00;;;;5089919;28;20241;-77
2022/10/19 09:17:57;;;;;;;1.98;1.42;;;;;17.80;102604.00;;;;5089853;28;20283;-77
2022/10/19 09:20:31;;;;;;;2.10;1.45;;;;;17.90;102610.00;;;;5089002;28;20206;-76
2022/10/19 09:23:04;;;;;;;2.88;1.55;;;;;17.90;102600.00;;;;5089496;28;20212;-77
2022/10/19 09:25:35;;;;;;;5.65;1.70;;;;;18.10;102604.00;;;;5088966;28;20221;-77
2022/10/19 09:28:14;;;;;;;4.85;1.50;;;;;18.10;102594.00;;;;5092542;28;20194;-78
2022/10/19 09:30:44;;;;;;;3.35;1.25;;;;;18.30;102591.00;;;;5090021;28;20206;-77
2022/10/19 09:33:20;;;;;;;2.28;1.10;;;;;18.30;102587.00;;;;5088310;28;20229;-77
2022/10/19 09:35:48;;;;;;;3.95;1.80;;;;;18.50;102582.00;;;;5089046;28;20205;-78
2022/10/19 09:38:18;;;;;;;3.63;1.30;;;;;18.50;102576.00;;;;5088642;28;20203;-77
2022/10/19 09:40:45;;;;;;;6.55;1.63;;;;;18.70;102585.00;;;;5088500;28;20638;-78
2022/10/19 09:43:20;;;;;;;1.85;0.90;;;;;18.80;102581.00;;;;5087752;28;20191;-78
2022/10/19 09:45:52;;;;;;;1.38;0.90;;;;;18.80;102578.00;;;;5091820;28;20194;-78
2022/10/19 09:48:29;;;;;;;2.15;1.00;;;;;18.90;102576.00;;;;5096595;28;20198;-78
2022/10/19 09:50:58;;;;;;;3.13;1.15;;;;;19.00;102573.00;;;;5095538;28;20190;-78
2022/10/19 09:53:26;;;;;;;2.50;1.10;;;;;19.10;102571.00;;;;5096700;28;20194;-78
2022/10/19 09:56:00;;;;;;;1.65;0.90;;;;;19.10;102572.00;;;;5093105;28;20205;-78
2022/10/19 09:58:29;;;;;;;2.15;1.10;;;;;19.20;102572.00;;;;5095111;28;20202;-78
2022/10/19 10:00:57;;;;;;;2.65;1.05;;;;;19.30;102578.00;;;;5094161;28;20320;-79
2022/10/19 10:03:31;;;;;;;2.45;0.90;;;;;19.30;102580.00;;;;5108617;28;20205;-78
2022/10/19 10:06:02;;;;;;;2.20;0.80;;;;;19.40;102576.00;;;;5095058;28;20233;-78
2022/10/19 10:08:34;;;;;;;2.67;0.85;;;;;19.50;102577.00;;;;5087949;28;20202;-77
2022/10/19 10:11:07;;;;;;;1.48;0.40;;;;;19.60;102576.00;;;;5088431;28;20194;-78
2022/10/19 10:13:39;;;;;;;3.30;0.68;;;;;19.70;102576.00;;;;5088140;28;20660;-79
2022/10/19 10:16:09;;;;;;;2.88;0.73;;;;;19.80;102576.00;;;;5091966;28;20206;-79
2022/10/19 10:18:49;;;;;;;1.55;0.60;;;;;19.90;102584.00;;;;5093827;28;20280;-79
2022/10/19 10:21:22;;;;;;;2.88;0.75;;;;;19.90;102574.00;;;;5088500;28;20198;-78
2022/10/19 10:24:04;;;;;;;1.00;0.47;;;;;19.90;102567.00;;;;5087193;28;20586;-77
2022/10/19 10:26:33;;;;;;;0.98;0.30;;;;;20.10;102567.00;;;;5094462;28;20651;-77
2022/10/19 10:29:00;;;;;;;1.67;0.32;;;;;20.20;102555.00;;;;5099136;28;20288;-78
2022/10/19 10:31:29;;;;;;;1.65;0.45;;;;;20.20;102543.00;;;;5092990;28;20194;-77
2022/10/19 10:34:01;;;;;;;3.70;0.43;;;;;20.30;102539.00;;;;5087273;28;20217;-78
2022/10/19 10:36:30;;;;;;;1.48;0.43;;;;;20.40;102548.00;;;;5087329;28;20268;-77
2022/10/19 10:39:04;;;;;;;3.42;0.52;;;;;20.40;102539.00;;;;5087293;28;20677;-77
2022/10/19 10:41:39;;;;;;;1.35;0.57;;;;;20.50;102531.00;;;;5088640;28;20201;-77
2022/10/19 10:44:14;;;;;;;1.95;0.40;;;;;20.60;102521.00;;;;5092496;28;20197;-78
2022/10/19 10:46:51;;;;;;;4.07;0.20;;;;;20.60;102527.00;;;;5106188;28;20185;-78
2022/10/19 10:49:23;;;;;;;2.10;0.68;;;;;20.60;102517.00;;;;5107763;28;20585;-77
2022/10/19 10:51:54;;;;;;;1.20;0.40;;;;;20.70;102523.00;;;;5098521;28;20198;-76
2022/10/19 10:54:22;;;;;;;2.17;0.50;;;;;20.80;102523.00;;;;5102588;28;20224;-77
2022/10/19 10:57:12;;;;;;;1.70;0.38;;;;;20.70;102517.00;;;;5096773;28;20195;-76
2022/10/19 10:59:53;;;;;;;1.45;0.40;;;;;20.80;102516.00;;;;5092505;28;20194;-77
2022/10/19 11:02:35;;;;;;;1.67;0.28;;;;;20.80;102522.00;;;;5099032;28;20284;-77
2022/10/19 11:05:10;;;;;;;1.65;0.40;;;;;20.90;102512.00;;;;5093212;28;20190;-77
2022/10/19 11:07:43;;;;;;;0.98;0.35;;;;;20.90;102508.00;;;;5091018;28;20197;-77
2022/10/19 11:10:21;;;;;;;2.28;0.77;;;;;21.00;102510.00;;;;5092184;28;20205;-77
2022/10/19 11:12:55;;;;;;;1.33;0.40;;;;;21.00;102500.00;;;;5094557;28;20250;-77
2022/10/19 11:15:26;;;;;;;1.33;0.20;;;;;21.10;102491.00;;;;5090519;28;20725;-77
2022/10/19 11:18:05;;;;;;;2.80;0.93;;;;;21.20;102486.00;;;;5091475;28;20191;-76
2022/10/19 11:20:38;;;;;;;1.33;0.20;;;;;21.20;102491.00;;;;5091861;28;20194;-77
2022/10/19 11:23:14;;;;;;;2.20;0.43;;;;;21.20;102481.00;;;;5103664;28;20200;-78
2022/10/19 11:25:51;;;;;;;1.98;0.40;;;;;21.20;102487.00;;;;5092635;28;20220;-78
2022/10/19 11:28:37;;;;;;;1.63;0.50;;;;;21.20;102479.00;;;;5090419;28;20194;-78
2022/10/19 11:31:11;;;;;;;2.88;0.30;;;;;21.30;102472.00;;;;5102695;28;20571;-77
2022/10/19 11:33:49;;;;;;;2.00;0.60;;;;;21.30;102465.00;;;;5111152;28;20233;-79
2022/10/19 11:36:32;;;;;;;1.70;0.40;;;;;21.30;102475.00;;;;5110674;28;20233;-79
2022/10/19 11:39:18;;;;;;;2.75;0.60;;;;;21.30;102468.00;;;;5099750;28;20201;-78
2022/10/19 11:41:54;;;;;;;2.03;0.50;;;;;21.40;102463.00;;;;5103781;28;20182;-77
2022/10/19 11:44:33;;;;;;;1.27;0.60;;;;;21.40;102447.00;;;;5088637;28;20567;-76
2022/10/19 11:47:20;;;;;;;2.38;0.60;;;;;21.30;102451.00;;;;5088885;28;20201;-77
2022/10/19 11:50:02;;;;;;;1.67;0.52;;;;;21.30;102439.00;;;;5097224;28;20201;-77
2022/10/19 11:52:38;;;;;;;2.70;0.73;;;;;21.40;102430.00;;;;5091414;28;20216;-76
2022/10/19 11:55:16;;;;;;;1.83;0.90;;;;;21.40;102439.00;;;;5097955;28;20217;-77
2022/10/19 11:57:51;;;;;;;4.03;0.73;;;;;21.50;102431.00;;;;5094033;28;20209;-77
2022/10/19 12:00:20;;;;;;;1.92;0.73;;;;;21.50;102423.00;;;;5109508;27;20208;-77
2022/10/19 12:03:29;;;;;;;3.85;0.95;;;;;21.40;102420.00;;;;5107228;27;20205;-77
2022/10/19 12:06:09;;;;;;;3.38;0.80;;;;;21.50;102412.00;;;;5103069;27;20523;-77
2022/10/19 12:09:04;;;;;;;1.13;0.50;;;;;21.50;102412.00;;;;5093478;28;20201;-77
2022/10/19 12:11:46;;;;;;;3.22;1.10;;;;;21.60;102408.00;;;;5110112;28;20246;-78
2022/10/19 12:14:16;;;;;;;3.63;1.15;;;;;21.70;102403.00;;;;5104525;28;20221;-78
2022/10/19 12:16:48;;;;;;;2.92;0.98;;;;;21.70;102391.00;;;;5098330;27;20655;-78
2022/10/19 12:19:19;;;;;;;2.00;0.65;;;;;21.70;102388.00;;;;5108586;28;20233;-78
2022/10/19 12:21:47;;;;;;;1.70;0.80;;;;;21.80;102386.00;;;;5103854;27;20190;-78
2022/10/19 12:24:20;;;;;;;1.70;0.90;;;;;21.80;102377.00;;;;5113226;27;20283;-78
2022/10/19 12:26:50;;;;;;;1.95;0.80;;;;;21.80;102376.00;;;;5106651;27;20741;-77